sensor_id;sensor_type;location;lat;lon;timestamp;P1;durP1;ratioP1;P2;durP2;ratioP2
83728;SDS011;73707;56.480;-2.840;2024-03-02T00:00:10;0.73;;;0.23;;
83728;SDS011;73707;56.480;-2.840;2024-03-02T00:02:40;1.35;;;0.30;;
83728;SDS011;73707;56.480;-2.840;2024-03-02T00:05:06;0.50;;;0.30;;
83728;SDS011;73707;56.480;-2.840;2024-03-02T00:07:32;0.30;;;0.20;;
83728;SDS011;73707;56.480;-2.840;2024-03-02T00:09:58;0.88;;;0.17;;
83728;SDS011;73707;56.480;-2.840;2024-03-02T00:12:24;1.42;;;0.40;;
83728;SDS011;73707;56.480;-2.840;2024-03-02T00:14:50;1.90;;;0.40;;
83728;SDS011;73707;56.480;-2.840;2024-03-02T00:17:24;0.37;;;0.30;;
83728;SDS011;73707;56.480;-2.840;2024-03-02T00:19:50;0.13;;;0.13;;
83728;SDS011;73707;56.480;-2.840;2024-03-02T00:22:17;1.05;;;0.30;;
83728;SDS011;73707;56.480;-2.840;2024-03-02T00:24:43;2.10;;;0.60;;
83728;SDS011;73707;56.480;-2.840;2024-03-02T00:27:09;0.60;;;0.30;;
83728;SDS011;73707;56.480;-2.840;2024-03-02T00:29:40;0.20;;;0.20;;
83728;SDS011;73707;56.480;-2.840;2024-03-02T00:32:16;1.10;;;0.20;;
83728;SDS011;73707;56.480;-2.840;2024-03-02T00:34:42;1.77;;;0.47;;
83728;SDS011;73707;56.480;-2.840;2024-03-02T00:37:08;0.20;;;0.20;;
83728;SDS011;73707;56.480;-2.840;2024-03-02T00:39:34;0.55;;;0.20;;
83728;SDS011;73707;56.480;-2.840;2024-03-02T00:42:00;0.57;;;0.30;;
83728;SDS011;73707;56.480;-2.840;2024-03-02T00:44:26;0.40;;;0.20;;
83728;SDS011;73707;56.480;-2.840;2024-03-02T00:46:54;0.57;;;0.25;;
83728;SDS011;73707;56.480;-2.840;2024-03-02T00:51:47;0.30;;;0.22;;
83728;SDS011;73707;56.480;-2.840;2024-03-02T00:54:20;1.10;;;0.20;;
83728;SDS011;73707;56.480;-2.840;2024-03-02T00:56:49;0.30;;;0.22;;
83728;SDS011;73707;56.480;-2.840;2024-03-02T00:59:15;0.47;;;0.20;;
83728;SDS011;73707;56.480;-2.840;2024-03-02T01:01:41;0.40;;;0.20;;
83728;SDS011;73707;56.480;-2.840;2024-03-02T01:04:08;1.00;;;0.30;;
83728;SDS011;73707;56.480;-2.840;2024-03-02T01:06:37;0.80;;;0.30;;
83728;SDS011;73707;56.480;-2.840;2024-03-02T01:09:03;0.90;;;0.38;;
83728;SDS011;73707;56.480;-2.840;2024-03-02T01:11:29;3.80;;;0.20;;
83728;SDS011;73707;56.480;-2.840;2024-03-02T01:13:55;0.35;;;0.32;;
83728;SDS011;73707;56.480;-2.840;2024-03-02T01:16:20;1.17;;;0.40;;
83728;SDS011;73707;56.480;-2.840;2024-03-02T01:18:46;0.40;;;0.20;;
83728;SDS011;73707;56.480;-2.840;2024-03-02T01:21:12;2.22;;;0.50;;
83728;SDS011;73707;56.480;-2.840;2024-03-02T01:23:38;0.20;;;0.20;;
83728;SDS011;73707;56.480;-2.840;2024-03-02T01:26:03;0.73;;;0.20;;
83728;SDS011;73707;56.480;-2.840;2024-03-02T01:28:29;0.40;;;0.15;;
83728;SDS011;73707;56.480;-2.840;2024-03-02T01:30:55;0.40;;;0.20;;
83728;SDS011;73707;56.480;-2.840;2024-03-02T01:33:21;1.17;;;0.20;;
83728;SDS011;73707;56.480;-2.840;2024-03-02T01:35:46;0.40;;;0.20;;
83728;SDS011;73707;56.480;-2.840;2024-03-02T01:38:12;0.22;;;0.10;;
83728;SDS011;73707;56.480;-2.840;2024-03-02T01:40:38;0.20;;;0.20;;
83728;SDS011;73707;56.480;-2.840;2024-03-02T01:43:04;0.22;;;0.10;;
83728;SDS011;73707;56.480;-2.840;2024-03-02T01:45:31;0.55;;;0.20;;
83728;SDS011;73707;56.480;-2.840;2024-03-02T01:47:57;0.98;;;0.20;;
83728;SDS011;73707;56.480;-2.840;2024-03-02T01:50:29;0.10;;;0.00;;
83728;SDS011;73707;56.480;-2.840;2024-03-02T01:52:57;0.10;;;0.03;;
83728;SDS011;73707;56.480;-2.840;2024-03-02T01:55:23;1.00;;;0.10;;
83728;SDS011;73707;56.480;-2.840;2024-03-02T01:57:50;0.20;;;0.10;;
83728;SDS011;73707;56.480;-2.840;2024-03-02T02:00:17;0.10;;;0.10;;
83728;SDS011;73707;56.480;-2.840;2024-03-02T02:02:44;0.10;;;0.10;;
83728;SDS011;73707;56.480;-2.840;2024-03-02T02:05:10;1.08;;;0.20;;
83728;SDS011;73707;56.480;-2.840;2024-03-02T02:07:36;0.00;;;0.00;;
83728;SDS011;73707;56.480;-2.840;2024-03-02T02:10:02;0.70;;;0.10;;
83728;SDS011;73707;56.480;-2.840;2024-03-02T02:12:28;0.80;;;0.10;;
83728;SDS011;73707;56.480;-2.840;2024-03-02T02:14:54;0.60;;;0.03;;
83728;SDS011;73707;56.480;-2.840;2024-03-02T02:17:19;0.20;;;0.00;;
83728;SDS011;73707;56.480;-2.840;2024-03-02T02:19:45;0.20;;;0.00;;
83728;SDS011;73707;56.480;-2.840;2024-03-02T02:22:11;0.20;;;0.10;;
83728;SDS011;73707;56.480;-2.840;2024-03-02T02:24:42;0.20;;;0.00;;
83728;SDS011;73707;56.480;-2.840;2024-03-02T02:27:09;0.10;;;0.10;;
83728;SDS011;73707;56.480;-2.840;2024-03-02T02:29:40;0.20;;;0.10;;
83728;SDS011;73707;56.480;-2.840;2024-03-02T02:32:06;0.20;;;0.00;;
83728;SDS011;73707;56.480;-2.840;2024-03-02T02:34:32;0.38;;;0.10;;
83728;SDS011;73707;56.480;-2.840;2024-03-02T02:36:58;0.10;;;0.00;;
83728;SDS011;73707;56.480;-2.840;2024-03-02T02:39:24;0.10;;;0.00;;
83728;SDS011;73707;56.480;-2.840;2024-03-02T02:41:50;0.10;;;0.00;;
83728;SDS011;73707;56.480;-2.840;2024-03-02T02:44:15;0.13;;;0.10;;
83728;SDS011;73707;56.480;-2.840;2024-03-02T02:46:41;0.10;;;0.10;;
83728;SDS011;73707;56.480;-2.840;2024-03-02T02:49:07;0.10;;;0.10;;
83728;SDS011;73707;56.480;-2.840;2024-03-02T02:51:32;0.30;;;0.10;;
83728;SDS011;73707;56.480;-2.840;2024-03-02T02:53:58;0.00;;;0.00;;
83728;SDS011;73707;56.480;-2.840;2024-03-02T02:56:24;0.13;;;0.00;;
83728;SDS011;73707;56.480;-2.840;2024-03-02T02:58:49;0.30;;;0.08;;
83728;SDS011;73707;56.480;-2.840;2024-03-02T03:01:15;0.40;;;0.10;;
83728;SDS011;73707;56.480;-2.840;2024-03-02T03:03:44;0.30;;;0.10;;
83728;SDS011;73707;56.480;-2.840;2024-03-02T03:06:10;0.10;;;0.10;;
83728;SDS011;73707;56.480;-2.840;2024-03-02T03:08:36;0.40;;;0.10;;
83728;SDS011;73707;56.480;-2.840;2024-03-02T03:11:03;0.00;;;0.00;;
83728;SDS011;73707;56.480;-2.840;2024-03-02T03:13:29;0.30;;;0.10;;
83728;SDS011;73707;56.480;-2.840;2024-03-02T03:15:55;0.30;;;0.17;;
83728;SDS011;73707;56.480;-2.840;2024-03-02T03:18:21;0.40;;;0.00;;
83728;SDS011;73707;56.480;-2.840;2024-03-02T03:20:47;0.30;;;0.07;;
83728;SDS011;73707;56.480;-2.840;2024-03-02T03:23:12;0.00;;;0.00;;
83728;SDS011;73707;56.480;-2.840;2024-03-02T03:25:41;1.48;;;0.10;;
83728;SDS011;73707;56.480;-2.840;2024-03-02T03:28:07;0.30;;;0.10;;
83728;SDS011;73707;56.480;-2.840;2024-03-02T03:30:35;0.28;;;0.10;;
83728;SDS011;73707;56.480;-2.840;2024-03-02T03:33:02;0.10;;;0.00;;
83728;SDS011;73707;56.480;-2.840;2024-03-02T03:35:28;0.40;;;0.38;;
83728;SDS011;73707;56.480;-2.840;2024-03-02T03:37:54;0.75;;;0.13;;
83728;SDS011;73707;56.480;-2.840;2024-03-02T03:40:19;0.50;;;0.23;;
83728;SDS011;73707;56.480;-2.840;2024-03-02T03:42:45;0.30;;;0.10;;
83728;SDS011;73707;56.480;-2.840;2024-03-02T03:45:11;0.20;;;0.20;;
83728;SDS011;73707;56.480;-2.840;2024-03-02T03:47:36;0.50;;;0.10;;
83728;SDS011;73707;56.480;-2.840;2024-03-02T03:50:02;1.10;;;0.20;;
83728;SDS011;73707;56.480;-2.840;2024-03-02T03:52:32;0.60;;;0.10;;
83728;SDS011;73707;56.480;-2.840;2024-03-02T03:54:57;0.20;;;0.08;;
83728;SDS011;73707;56.480;-2.840;2024-03-02T03:57:23;0.30;;;0.10;;
83728;SDS011;73707;56.480;-2.840;2024-03-02T03:59:49;0.13;;;0.08;;
83728;SDS011;73707;56.480;-2.840;2024-03-02T04:02:14;0.60;;;0.20;;
83728;SDS011;73707;56.480;-2.840;2024-03-02T04:04:40;0.82;;;0.25;;
83728;SDS011;73707;56.480;-2.840;2024-03-02T04:07:05;1.07;;;0.10;;
83728;SDS011;73707;56.480;-2.840;2024-03-02T04:09:31;0.30;;;0.10;;
83728;SDS011;73707;56.480;-2.840;2024-03-02T04:11:57;0.43;;;0.10;;
83728;SDS011;73707;56.480;-2.840;2024-03-02T04:14:23;0.22;;;0.20;;
83728;SDS011;73707;56.480;-2.840;2024-03-02T04:16:49;0.33;;;0.20;;
83728;SDS011;73707;56.480;-2.840;2024-03-02T04:19:14;0.60;;;0.20;;
83728;SDS011;73707;56.480;-2.840;2024-03-02T04:21:40;0.30;;;0.20;;
83728;SDS011;73707;56.480;-2.840;2024-03-02T04:24:06;0.73;;;0.40;;
83728;SDS011;73707;56.480;-2.840;2024-03-02T04:26:31;0.90;;;0.13;;
83728;SDS011;73707;56.480;-2.840;2024-03-02T04:28:57;0.82;;;0.30;;
83728;SDS011;73707;56.480;-2.840;2024-03-02T04:31:22;0.30;;;0.10;;
83728;SDS011;73707;56.480;-2.840;2024-03-02T04:33:48;1.50;;;0.23;;
83728;SDS011;73707;56.480;-2.840;2024-03-02T04:36:14;1.65;;;0.20;;
83728;SDS011;73707;56.480;-2.840;2024-03-02T04:38:39;0.80;;;0.20;;
83728;SDS011;73707;56.480;-2.840;2024-03-02T04:41:06;1.10;;;0.38;;
83728;SDS011;73707;56.480;-2.840;2024-03-02T04:43:32;0.52;;;0.20;;
83728;SDS011;73707;56.480;-2.840;2024-03-02T04:45:58;0.80;;;0.33;;
83728;SDS011;73707;56.480;-2.840;2024-03-02T04:48:25;1.15;;;0.22;;
83728;SDS011;73707;56.480;-2.840;2024-03-02T04:50:50;0.40;;;0.10;;
83728;SDS011;73707;56.480;-2.840;2024-03-02T04:53:16;10.75;;;0.40;;
83728;SDS011;73707;56.480;-2.840;2024-03-02T04:55:42;2.30;;;0.10;;
83728;SDS011;73707;56.480;-2.840;2024-03-02T04:58:08;0.20;;;0.10;;
83728;SDS011;73707;56.480;-2.840;2024-03-02T05:00:34;1.53;;;0.57;;
83728;SDS011;73707;56.480;-2.840;2024-03-02T05:03:00;0.50;;;0.30;;
83728;SDS011;73707;56.480;-2.840;2024-03-02T05:05:26;0.60;;;0.13;;
83728;SDS011;73707;56.480;-2.840;2024-03-02T05:07:52;0.50;;;0.10;;
83728;SDS011;73707;56.480;-2.840;2024-03-02T05:10:17;1.73;;;0.30;;
83728;SDS011;73707;56.480;-2.840;2024-03-02T05:12:43;0.83;;;0.23;;
83728;SDS011;73707;56.480;-2.840;2024-03-02T05:15:09;0.40;;;0.20;;
83728;SDS011;73707;56.480;-2.840;2024-03-02T05:17:36;0.43;;;0.20;;
83728;SDS011;73707;56.480;-2.840;2024-03-02T05:20:03;1.65;;;0.32;;
83728;SDS011;73707;56.480;-2.840;2024-03-02T05:22:29;1.58;;;0.10;;
83728;SDS011;73707;56.480;-2.840;2024-03-02T05:24:55;1.83;;;0.40;;
83728;SDS011;73707;56.480;-2.840;2024-03-02T05:27:21;0.63;;;0.20;;
83728;SDS011;73707;56.480;-2.840;2024-03-02T05:29:47;0.63;;;0.27;;
83728;SDS011;73707;56.480;-2.840;2024-03-02T05:32:13;1.40;;;0.20;;
83728;SDS011;73707;56.480;-2.840;2024-03-02T05:34:38;0.10;;;0.00;;
83728;SDS011;73707;56.480;-2.840;2024-03-02T05:37:04;1.10;;;0.20;;
83728;SDS011;73707;56.480;-2.840;2024-03-02T05:39:30;0.40;;;0.20;;
83728;SDS011;73707;56.480;-2.840;2024-03-02T05:41:56;0.77;;;0.40;;
83728;SDS011;73707;56.480;-2.840;2024-03-02T05:44:21;0.45;;;0.10;;
83728;SDS011;73707;56.480;-2.840;2024-03-02T05:46:47;0.20;;;0.20;;
83728;SDS011;73707;56.480;-2.840;2024-03-02T05:49:13;0.55;;;0.28;;
83728;SDS011;73707;56.480;-2.840;2024-03-02T05:51:39;0.10;;;0.10;;
83728;SDS011;73707;56.480;-2.840;2024-03-02T05:54:04;1.42;;;0.40;;
83728;SDS011;73707;56.480;-2.840;2024-03-02T05:56:30;0.60;;;0.10;;
83728;SDS011;73707;56.480;-2.840;2024-03-02T05:58:56;0.52;;;0.20;;
83728;SDS011;73707;56.480;-2.840;2024-03-02T06:01:24;1.90;;;0.20;;
83728;SDS011;73707;56.480;-2.840;2024-03-02T06:03:54;0.20;;;0.10;;
83728;SDS011;73707;56.480;-2.840;2024-03-02T06:06:21;0.40;;;0.10;;
83728;SDS011;73707;56.480;-2.840;2024-03-02T06:08:47;0.43;;;0.10;;
83728;SDS011;73707;56.480;-2.840;2024-03-02T06:11:13;0.20;;;0.13;;
83728;SDS011;73707;56.480;-2.840;2024-03-02T06:13:39;0.10;;;0.10;;
83728;SDS011;73707;56.480;-2.840;2024-03-02T06:16:04;0.38;;;0.13;;
83728;SDS011;73707;56.480;-2.840;2024-03-02T06:18:30;0.10;;;0.10;;
83728;SDS011;73707;56.480;-2.840;2024-03-02T06:20:56;0.20;;;0.10;;
83728;SDS011;73707;56.480;-2.840;2024-03-02T06:23:22;0.63;;;0.20;;
83728;SDS011;73707;56.480;-2.840;2024-03-02T06:25:47;1.00;;;0.30;;
83728;SDS011;73707;56.480;-2.840;2024-03-02T06:28:13;0.40;;;0.20;;
83728;SDS011;73707;56.480;-2.840;2024-03-02T06:30:40;0.60;;;0.20;;
83728;SDS011;73707;56.480;-2.840;2024-03-02T06:33:07;0.85;;;0.20;;
83728;SDS011;73707;56.480;-2.840;2024-03-02T06:35:33;1.05;;;0.32;;
83728;SDS011;73707;56.480;-2.840;2024-03-02T06:38:00;0.20;;;0.20;;
83728;SDS011;73707;56.480;-2.840;2024-03-02T06:40:26;2.63;;;0.22;;
83728;SDS011;73707;56.480;-2.840;2024-03-02T06:42:51;0.80;;;0.20;;
83728;SDS011;73707;56.480;-2.840;2024-03-02T06:45:17;1.10;;;0.15;;
83728;SDS011;73707;56.480;-2.840;2024-03-02T06:47:43;0.60;;;0.30;;
83728;SDS011;73707;56.480;-2.840;2024-03-02T06:50:08;0.35;;;0.20;;
83728;SDS011;73707;56.480;-2.840;2024-03-02T06:52:34;2.20;;;0.30;;
83728;SDS011;73707;56.480;-2.840;2024-03-02T06:55:01;2.45;;;0.40;;
83728;SDS011;73707;56.480;-2.840;2024-03-02T06:57:26;1.10;;;0.50;;
83728;SDS011;73707;56.480;-2.840;2024-03-02T06:59:52;2.35;;;0.40;;
83728;SDS011;73707;56.480;-2.840;2024-03-02T07:02:22;1.17;;;0.50;;
83728;SDS011;73707;56.480;-2.840;2024-03-02T07:04:48;0.73;;;0.25;;
83728;SDS011;73707;56.480;-2.840;2024-03-02T07:07:16;1.40;;;0.60;;
83728;SDS011;73707;56.480;-2.840;2024-03-02T07:09:41;0.90;;;0.30;;
83728;SDS011;73707;56.480;-2.840;2024-03-02T07:12:07;3.83;;;0.32;;
83728;SDS011;73707;56.480;-2.840;2024-03-02T07:14:33;0.38;;;0.20;;
83728;SDS011;73707;56.480;-2.840;2024-03-02T07:17:18;1.60;;;0.40;;
83728;SDS011;73707;56.480;-2.840;2024-03-02T07:19:44;2.15;;;0.60;;
83728;SDS011;73707;56.480;-2.840;2024-03-02T07:22:09;1.45;;;0.47;;
83728;SDS011;73707;56.480;-2.840;2024-03-02T07:24:42;3.35;;;0.35;;
83728;SDS011;73707;56.480;-2.840;2024-03-02T07:27:08;2.78;;;0.77;;
83728;SDS011;73707;56.480;-2.840;2024-03-02T07:29:35;1.92;;;0.52;;
83728;SDS011;73707;56.480;-2.840;2024-03-02T07:32:01;1.08;;;0.68;;
83728;SDS011;73707;56.480;-2.840;2024-03-02T07:34:27;1.23;;;0.80;;
83728;SDS011;73707;56.480;-2.840;2024-03-02T07:36:52;4.53;;;1.20;;
83728;SDS011;73707;56.480;-2.840;2024-03-02T07:39:18;1.38;;;0.95;;
83728;SDS011;73707;56.480;-2.840;2024-03-02T07:41:45;3.25;;;1.30;;
83728;SDS011;73707;56.480;-2.840;2024-03-02T07:44:11;2.28;;;1.73;;
83728;SDS011;73707;56.480;-2.840;2024-03-02T07:46:43;3.85;;;1.60;;
83728;SDS011;73707;56.480;-2.840;2024-03-02T07:49:09;1.95;;;1.80;;
83728;SDS011;73707;56.480;-2.840;2024-03-02T07:51:35;2.95;;;1.70;;
83728;SDS011;73707;56.480;-2.840;2024-03-02T07:54:04;2.35;;;1.70;;
83728;SDS011;73707;56.480;-2.840;2024-03-02T07:56:29;3.00;;;1.83;;
83728;SDS011;73707;56.480;-2.840;2024-03-02T07:58:55;4.15;;;1.70;;
83728;SDS011;73707;56.480;-2.840;2024-03-02T08:01:25;2.40;;;1.70;;
83728;SDS011;73707;56.480;-2.840;2024-03-02T08:03:55;1.83;;;1.40;;
83728;SDS011;73707;56.480;-2.840;2024-03-02T08:06:23;1.83;;;1.20;;
83728;SDS011;73707;56.480;-2.840;2024-03-02T08:08:56;3.33;;;1.33;;
83728;SDS011;73707;56.480;-2.840;2024-03-02T08:11:22;3.47;;;1.80;;
83728;SDS011;73707;56.480;-2.840;2024-03-02T08:13:48;2.15;;;1.23;;
83728;SDS011;73707;56.480;-2.840;2024-03-02T08:16:17;1.15;;;0.95;;
83728;SDS011;73707;56.480;-2.840;2024-03-02T08:18:45;1.67;;;1.08;;
83728;SDS011;73707;56.480;-2.840;2024-03-02T08:21:14;1.50;;;1.15;;
83728;SDS011;73707;56.480;-2.840;2024-03-02T08:23:40;1.60;;;1.10;;
83728;SDS011;73707;56.480;-2.840;2024-03-02T08:26:07;2.38;;;1.02;;
83728;SDS011;73707;56.480;-2.840;2024-03-02T08:28:33;1.92;;;0.63;;
83728;SDS011;73707;56.480;-2.840;2024-03-02T08:30:59;1.17;;;0.70;;
83728;SDS011;73707;56.480;-2.840;2024-03-02T08:33:25;1.70;;;0.63;;
83728;SDS011;73707;56.480;-2.840;2024-03-02T08:35:51;2.40;;;0.70;;
83728;SDS011;73707;56.480;-2.840;2024-03-02T08:38:17;2.15;;;0.80;;
83728;SDS011;73707;56.480;-2.840;2024-03-02T08:40:43;1.53;;;0.63;;
83728;SDS011;73707;56.480;-2.840;2024-03-02T08:43:09;1.30;;;0.80;;
83728;SDS011;73707;56.480;-2.840;2024-03-02T08:45:35;1.00;;;0.70;;
83728;SDS011;73707;56.480;-2.840;2024-03-02T08:48:00;1.27;;;0.73;;
83728;SDS011;73707;56.480;-2.840;2024-03-02T08:50:26;1.30;;;0.70;;
83728;SDS011;73707;56.480;-2.840;2024-03-02T08:52:52;1.15;;;0.70;;
83728;SDS011;73707;56.480;-2.840;2024-03-02T08:55:17;0.85;;;0.65;;
83728;SDS011;73707;56.480;-2.840;2024-03-02T08:57:43;1.40;;;0.40;;
83728;SDS011;73707;56.480;-2.840;2024-03-02T09:00:09;1.10;;;0.68;;
83728;SDS011;73707;56.480;-2.840;2024-03-02T09:02:35;1.70;;;0.70;;
83728;SDS011;73707;56.480;-2.840;2024-03-02T09:05:01;1.58;;;0.70;;
83728;SDS011;73707;56.480;-2.840;2024-03-02T09:07:27;1.65;;;0.80;;
83728;SDS011;73707;56.480;-2.840;2024-03-02T09:09:53;1.38;;;0.60;;
83728;SDS011;73707;56.480;-2.840;2024-03-02T09:12:19;1.00;;;0.70;;
83728;SDS011;73707;56.480;-2.840;2024-03-02T09:14:44;2.45;;;0.65;;
83728;SDS011;73707;56.480;-2.840;2024-03-02T09:17:11;2.10;;;1.08;;
83728;SDS011;73707;56.480;-2.840;2024-03-02T09:19:39;1.88;;;0.60;;
83728;SDS011;73707;56.480;-2.840;2024-03-02T09:22:05;1.55;;;0.68;;
83728;SDS011;73707;56.480;-2.840;2024-03-02T09:24:31;2.63;;;0.93;;
83728;SDS011;73707;56.480;-2.840;2024-03-02T09:26:58;1.52;;;0.75;;
83728;SDS011;73707;56.480;-2.840;2024-03-02T09:29:24;1.27;;;0.73;;
83728;SDS011;73707;56.480;-2.840;2024-03-02T09:31:50;0.80;;;0.60;;
83728;SDS011;73707;56.480;-2.840;2024-03-02T09:34:16;1.60;;;0.68;;
83728;SDS011;73707;56.480;-2.840;2024-03-02T09:36:42;1.90;;;0.70;;
83728;SDS011;73707;56.480;-2.840;2024-03-02T09:39:08;1.50;;;0.90;;
83728;SDS011;73707;56.480;-2.840;2024-03-02T09:41:37;1.10;;;0.45;;
83728;SDS011;73707;56.480;-2.840;2024-03-02T09:44:03;1.58;;;0.70;;
83728;SDS011;73707;56.480;-2.840;2024-03-02T09:46:30;1.75;;;0.70;;
83728;SDS011;73707;56.480;-2.840;2024-03-02T09:48:56;1.23;;;0.55;;
83728;SDS011;73707;56.480;-2.840;2024-03-02T09:51:22;0.60;;;0.50;;
83728;SDS011;73707;56.480;-2.840;2024-03-02T09:53:48;1.00;;;0.50;;
83728;SDS011;73707;56.480;-2.840;2024-03-02T09:56:15;3.30;;;0.68;;
83728;SDS011;73707;56.480;-2.840;2024-03-02T09:58:41;1.13;;;0.57;;
83728;SDS011;73707;56.480;-2.840;2024-03-02T10:01:07;2.25;;;0.60;;
83728;SDS011;73707;56.480;-2.840;2024-03-02T10:03:35;1.58;;;0.52;;
83728;SDS011;73707;56.480;-2.840;2024-03-02T10:08:47;4.68;;;0.68;;
83728;SDS011;73707;56.480;-2.840;2024-03-02T10:14:10;3.58;;;0.70;;
83728;SDS011;73707;56.480;-2.840;2024-03-02T10:16:37;2.70;;;0.80;;
83728;SDS011;73707;56.480;-2.840;2024-03-02T10:19:23;1.27;;;0.80;;
83728;SDS011;73707;56.480;-2.840;2024-03-02T10:24:16;3.70;;;1.08;;
83728;SDS011;73707;56.480;-2.840;2024-03-02T10:26:46;0.85;;;0.70;;
83728;SDS011;73707;56.480;-2.840;2024-03-02T10:29:12;2.50;;;1.00;;
83728;SDS011;73707;56.480;-2.840;2024-03-02T10:31:38;1.65;;;0.88;;
83728;SDS011;73707;56.480;-2.840;2024-03-02T10:34:05;1.15;;;0.55;;
83728;SDS011;73707;56.480;-2.840;2024-03-02T10:36:33;2.43;;;1.00;;
83728;SDS011;73707;56.480;-2.840;2024-03-02T10:39:01;1.70;;;1.23;;
83728;SDS011;73707;56.480;-2.840;2024-03-02T10:41:39;1.05;;;0.68;;
83728;SDS011;73707;56.480;-2.840;2024-03-02T10:44:06;3.63;;;1.20;;
83728;SDS011;73707;56.480;-2.840;2024-03-02T10:46:33;3.35;;;1.35;;
83728;SDS011;73707;56.480;-2.840;2024-03-02T10:49:01;9.05;;;1.75;;
83728;SDS011;73707;56.480;-2.840;2024-03-02T10:51:29;1.88;;;1.25;;
83728;SDS011;73707;56.480;-2.840;2024-03-02T10:54:01;5.18;;;1.73;;
83728;SDS011;73707;56.480;-2.840;2024-03-02T10:56:29;4.88;;;1.50;;
83728;SDS011;73707;56.480;-2.840;2024-03-02T10:59:02;2.03;;;1.42;;
83728;SDS011;73707;56.480;-2.840;2024-03-02T11:01:31;3.23;;;1.20;;
83728;SDS011;73707;56.480;-2.840;2024-03-02T11:03:58;7.57;;;1.77;;
83728;SDS011;73707;56.480;-2.840;2024-03-02T11:06:25;2.63;;;1.50;;
83728;SDS011;73707;56.480;-2.840;2024-03-02T11:08:54;1.40;;;0.93;;
83728;SDS011;73707;56.480;-2.840;2024-03-02T11:11:28;2.67;;;1.27;;
83728;SDS011;73707;56.480;-2.840;2024-03-02T11:13:57;3.63;;;1.27;;
83728;SDS011;73707;56.480;-2.840;2024-03-02T11:16:33;1.48;;;0.80;;
83728;SDS011;73707;56.480;-2.840;2024-03-02T11:19:04;6.40;;;1.20;;
83728;SDS011;73707;56.480;-2.840;2024-03-02T11:21:34;10.13;;;1.48;;
83728;SDS011;73707;56.480;-2.840;2024-03-02T11:27:06;2.97;;;1.15;;
83728;SDS011;73707;56.480;-2.840;2024-03-02T11:32:13;4.22;;;1.15;;
83728;SDS011;73707;56.480;-2.840;2024-03-02T11:34:40;4.00;;;1.13;;
83728;SDS011;73707;56.480;-2.840;2024-03-02T11:37:11;2.13;;;1.15;;
83728;SDS011;73707;56.480;-2.840;2024-03-02T11:39:40;5.38;;;1.52;;
83728;SDS011;73707;56.480;-2.840;2024-03-02T11:42:07;3.75;;;1.30;;
83728;SDS011;73707;56.480;-2.840;2024-03-02T11:44:36;2.55;;;0.98;;
83728;SDS011;73707;56.480;-2.840;2024-03-02T11:47:07;4.03;;;1.10;;
83728;SDS011;73707;56.480;-2.840;2024-03-02T11:49:42;4.47;;;1.35;;
83728;SDS011;73707;56.480;-2.840;2024-03-02T11:52:10;3.70;;;1.80;;
83728;SDS011;73707;56.480;-2.840;2024-03-02T11:54:46;5.13;;;1.42;;
83728;SDS011;73707;56.480;-2.840;2024-03-02T11:57:20;8.27;;;2.17;;
83728;SDS011;73707;56.480;-2.840;2024-03-02T11:59:50;6.28;;;1.48;;
83728;SDS011;73707;56.480;-2.840;2024-03-02T12:02:17;2.08;;;0.90;;
83728;SDS011;73707;56.480;-2.840;2024-03-02T12:04:47;2.53;;;0.80;;
83728;SDS011;73707;56.480;-2.840;2024-03-02T12:07:20;2.38;;;0.50;;
83728;SDS011;73707;56.480;-2.840;2024-03-02T12:09:48;0.85;;;0.50;;
83728;SDS011;73707;56.480;-2.840;2024-03-02T12:12:13;3.80;;;0.98;;
83728;SDS011;73707;56.480;-2.840;2024-03-02T12:14:52;1.90;;;0.50;;
83728;SDS011;73707;56.480;-2.840;2024-03-02T12:17:20;1.60;;;0.70;;
83728;SDS011;73707;56.480;-2.840;2024-03-02T12:19:46;3.20;;;0.85;;
83728;SDS011;73707;56.480;-2.840;2024-03-02T12:22:12;1.02;;;0.47;;
83728;SDS011;73707;56.480;-2.840;2024-03-02T12:24:38;0.65;;;0.35;;
83728;SDS011;73707;56.480;-2.840;2024-03-02T12:27:04;2.30;;;0.60;;
83728;SDS011;73707;56.480;-2.840;2024-03-02T12:29:30;1.67;;;0.60;;
83728;SDS011;73707;56.480;-2.840;2024-03-02T12:31:56;3.47;;;0.55;;
83728;SDS011;73707;56.480;-2.840;2024-03-02T12:34:22;1.73;;;0.68;;
83728;SDS011;73707;56.480;-2.840;2024-03-02T12:36:48;1.10;;;0.60;;
83728;SDS011;73707;56.480;-2.840;2024-03-02T12:39:17;3.35;;;0.93;;
83728;SDS011;73707;56.480;-2.840;2024-03-02T12:41:50;3.70;;;1.20;;
83728;SDS011;73707;56.480;-2.840;2024-03-02T12:44:16;2.55;;;0.90;;
83728;SDS011;73707;56.480;-2.840;2024-03-02T12:46:45;1.08;;;0.43;;
83728;SDS011;73707;56.480;-2.840;2024-03-02T12:49:12;1.10;;;0.47;;
83728;SDS011;73707;56.480;-2.840;2024-03-02T12:51:41;2.40;;;0.63;;
83728;SDS011;73707;56.480;-2.840;2024-03-02T12:54:10;1.00;;;0.50;;
83728;SDS011;73707;56.480;-2.840;2024-03-02T12:56:40;2.22;;;0.65;;
83728;SDS011;73707;56.480;-2.840;2024-03-02T12:59:21;1.33;;;0.40;;
83728;SDS011;73707;56.480;-2.840;2024-03-02T13:01:52;1.77;;;0.75;;
83728;SDS011;73707;56.480;-2.840;2024-03-02T13:04:25;2.95;;;1.02;;
83728;SDS011;73707;56.480;-2.840;2024-03-02T13:06:53;3.47;;;0.90;;
83728;SDS011;73707;56.480;-2.840;2024-03-02T13:09:20;1.25;;;0.52;;
83728;SDS011;73707;56.480;-2.840;2024-03-02T13:11:46;1.35;;;0.60;;
83728;SDS011;73707;56.480;-2.840;2024-03-02T13:14:12;1.10;;;0.55;;
83728;SDS011;73707;56.480;-2.840;2024-03-02T13:16:38;2.07;;;0.50;;
83728;SDS011;73707;56.480;-2.840;2024-03-02T13:19:08;6.28;;;0.88;;
83728;SDS011;73707;56.480;-2.840;2024-03-02T13:21:36;1.92;;;0.80;;
83728;SDS011;73707;56.480;-2.840;2024-03-02T13:24:01;3.63;;;1.33;;
83728;SDS011;73707;56.480;-2.840;2024-03-02T13:26:28;2.28;;;0.77;;
83728;SDS011;73707;56.480;-2.840;2024-03-02T13:28:54;1.23;;;0.40;;
83728;SDS011;73707;56.480;-2.840;2024-03-02T13:31:19;3.00;;;0.90;;
83728;SDS011;73707;56.480;-2.840;2024-03-02T13:33:46;3.63;;;0.70;;
83728;SDS011;73707;56.480;-2.840;2024-03-02T13:36:11;3.60;;;1.00;;
83728;SDS011;73707;56.480;-2.840;2024-03-02T13:38:38;3.97;;;0.70;;
83728;SDS011;73707;56.480;-2.840;2024-03-02T13:41:03;3.58;;;0.90;;
83728;SDS011;73707;56.480;-2.840;2024-03-02T13:43:29;3.47;;;0.50;;
83728;SDS011;73707;56.480;-2.840;2024-03-02T13:45:58;1.27;;;0.50;;
83728;SDS011;73707;56.480;-2.840;2024-03-02T13:48:24;1.20;;;0.43;;
83728;SDS011;73707;56.480;-2.840;2024-03-02T13:50:53;1.88;;;0.60;;
83728;SDS011;73707;56.480;-2.840;2024-03-02T13:53:20;2.92;;;0.40;;
83728;SDS011;73707;56.480;-2.840;2024-03-02T13:55:46;4.60;;;0.70;;
83728;SDS011;73707;56.480;-2.840;2024-03-02T13:58:11;1.20;;;0.60;;
83728;SDS011;73707;56.480;-2.840;2024-03-02T14:00:38;1.23;;;0.60;;
83728;SDS011;73707;56.480;-2.840;2024-03-02T14:03:04;1.45;;;0.73;;
83728;SDS011;73707;56.480;-2.840;2024-03-02T14:05:33;3.80;;;0.68;;
83728;SDS011;73707;56.480;-2.840;2024-03-02T14:07:59;2.05;;;0.60;;
83728;SDS011;73707;56.480;-2.840;2024-03-02T14:10:25;1.83;;;0.60;;
83728;SDS011;73707;56.480;-2.840;2024-03-02T14:12:52;1.88;;;0.60;;
83728;SDS011;73707;56.480;-2.840;2024-03-02T14:15:18;2.60;;;0.60;;
83728;SDS011;73707;56.480;-2.840;2024-03-02T14:17:43;2.83;;;0.50;;
83728;SDS011;73707;56.480;-2.840;2024-03-02T14:20:09;1.60;;;0.80;;
83728;SDS011;73707;56.480;-2.840;2024-03-02T14:22:37;3.30;;;0.63;;
83728;SDS011;73707;56.480;-2.840;2024-03-02T14:25:03;0.95;;;0.47;;
83728;SDS011;73707;56.480;-2.840;2024-03-02T14:27:29;1.23;;;0.63;;
83728;SDS011;73707;56.480;-2.840;2024-03-02T14:29:55;1.20;;;0.60;;
83728;SDS011;73707;56.480;-2.840;2024-03-02T14:32:21;1.20;;;0.47;;
83728;SDS011;73707;56.480;-2.840;2024-03-02T14:34:46;0.90;;;0.63;;
83728;SDS011;73707;56.480;-2.840;2024-03-02T14:37:13;2.60;;;0.90;;
83728;SDS011;73707;56.480;-2.840;2024-03-02T14:39:39;2.63;;;0.60;;
83728;SDS011;73707;56.480;-2.840;2024-03-02T14:42:05;1.20;;;0.52;;
83728;SDS011;73707;56.480;-2.840;2024-03-02T14:44:32;1.90;;;1.00;;
83728;SDS011;73707;56.480;-2.840;2024-03-02T14:46:59;2.50;;;0.60;;